WetterOnline ( https://www.wetteronline.ch )

Wetter aktuell Heilbad Heiligenstadt

Aktuelles Wetter: Leinefelde (356m)

6-stündlich | Neueste Meldungen
Ortszeit Temperatur Wetter
So, 12.07. 2:00 10.7° C bewölkt
Sa, 11.07. 20:00 16.9° C wolkenlos
Sa, 11.07. 14:00 16.9° C wolkig
Sa, 11.07. 8:00 11.4° C wolkenlos
Sa, 11.07. 2:00 10.5° C leicht bewölkt
Fr, 10.07. 20:00 14.4° C bewölkt
Fr, 10.07. 14:00 20.3° C bewölkt
Fr, 10.07. 8:00 16.9° C bewölkt
Ortszeit Temperatur Wetter
So, 12.07. 4:10 9.8° C wolkig
So, 12.07. 4:00 9.6° C fast wolkenlos
So, 12.07. 3:50 9.6° C wolkenlos
So, 12.07. 3:40 9.7° C wolkenlos
So, 12.07. 3:30 9.9° C leicht bewölkt
So, 12.07. 3:20 9.9° C leicht bewölkt
So, 12.07. 3:00 10.1° C bewölkt
So, 12.07. 2:30 10.6° C bedeckt
So, 12.07. 2:00 10.7° C bewölkt
So, 12.07. 1:30 10.4° C wolkig
So, 12.07. 1:00 10.9° C wolkig
Ortszeit Relative Feuchte Sichtweite
So, 12.07. 2:00 90% 60 km
Sa, 11.07. 20:00 46% >70 km
Sa, 11.07. 14:00 51% 65 km
Sa, 11.07. 8:00 82% 55 km
Sa, 11.07. 2:00 89% 60 km
Fr, 10.07. 20:00 81% >70 km
Fr, 10.07. 14:00 62% 45 km
Fr, 10.07. 8:00 85% 25 km
Ortszeit Relative Feuchte Sichtweite
So, 12.07. 4:10 90% -
So, 12.07. 4:00 90% 65 km
So, 12.07. 3:50 90% -
So, 12.07. 3:40 89% -
So, 12.07. 3:30 89% 65 km
So, 12.07. 3:20 89% -
So, 12.07. 3:00 89% 65 km
So, 12.07. 2:30 89% >70 km
So, 12.07. 2:00 90% 60 km
So, 12.07. 1:30 89% 60 km
So, 12.07. 1:00 86% 60 km
Ortszeit Niederschlagsmenge Niederschlagsart
So, 12.07. 2:00 0.0 l/m2 in 6 Std. -
Sa, 11.07. 20:00 0.0 l/m2 in 12 Std. -
Sa, 11.07. 14:00 0.0 l/m2 in 6 Std. -
Sa, 11.07. 8:00 0.0 l/m2 in 12 Std. -
Sa, 11.07. 2:00 0.0 l/m2 in 6 Std. -
Fr, 10.07. 20:00 1 l/m2 in 12 Std. Regen
Fr, 10.07. 14:00 0.0 l/m2 in 6 Std. -
Fr, 10.07. 8:00 0.1 l/m2 in 12 Std. -
Ortszeit Niederschlagsmenge Niederschlagsart
So, 12.07. 4:10 keine Meldung -
So, 12.07. 4:00 0.0 l/m2 in 1 Std. -
So, 12.07. 3:50 keine Meldung -
So, 12.07. 3:40 keine Meldung -
So, 12.07. 3:30 0.0 l/m2 in 1 Std. -
So, 12.07. 3:20 keine Meldung -
So, 12.07. 3:00 0.0 l/m2 in 1 Std. -
So, 12.07. 2:30 0.0 l/m2 in 1 Std. -
So, 12.07. 2:00 0.0 l/m2 in 1 Std. -
So, 12.07. 1:30 0.0 l/m2 in 1 Std. -
So, 12.07. 1:00 0.0 l/m2 in 1 Std. -
Ortszeit Stärke Spitze Richtung
km/h Bft. km/h Grad Sektor
So, 12.07. 2:00 7 2 31 280° W
Sa, 11.07. 20:00 7 2 28 290° W
Sa, 11.07. 14:00 9 2 28 330° NW
Sa, 11.07. 8:00 7 2 14 280° W
Sa, 11.07. 2:00 4 1 25 330° NW
Fr, 10.07. 20:00 13 3 46 340° N
Fr, 10.07. 14:00 25 4 54 250° W
Fr, 10.07. 8:00 6 1 9 140° SO
Ortszeit Stärke Spitze Richtung
km/h Bft. km/h Grad Sektor
So, 12.07. 4:10 7 2 - 250° W
So, 12.07. 4:00 9 2 13 280° W
So, 12.07. 3:50 9 2 - 280° W
So, 12.07. 3:40 9 2 - 280° W
So, 12.07. 3:30 11 2 14 280° W
So, 12.07. 3:20 11 2 - 280° W
So, 12.07. 3:00 9 2 11 270° W
So, 12.07. 2:30 6 1 9 300° NW
So, 12.07. 2:00 7 2 9 280° W
So, 12.07. 1:30 9 2 9 280° W
So, 12.07. 1:00 6 1 7 170° S
Ortszeit Untergrenze Bedeckung Gattung
total tief tief mittel hoch
So, 12.07. 2:00 1500 m 8/8 7/8 - - -
Sa, 11.07. 20:00 - 0/8 0/8 - - -
Sa, 11.07. 14:00 2100 m 5/8 5/8 - - -
Sa, 11.07. 8:00 - 0/8 0/8 - - -
Sa, 11.07. 2:00 570 m 4/8 4/8 - - -
Fr, 10.07. 20:00 660 m 7/8 7/8 - - -
Fr, 10.07. 14:00 1800 m 8/8 5/8 - - -
Fr, 10.07. 8:00 2400 m 8/8 7/8 - - -
Ortszeit Bedeckungsgrad in Achtel und Wolkenuntergrenze
So, 12.07. 4:10 6(1800m)
So, 12.07. 4:00 4(1800m)
So, 12.07. 3:50 keine Wolken
So, 12.07. 3:40 keine Wolken
So, 12.07. 3:30 4(1500m)
So, 12.07. 3:20 4(1500m)
So, 12.07. 3:00 6(1800m) 7(3000m)
So, 12.07. 2:30 8(1800m) 8(3000m)
So, 12.07. 2:00 7(1500m) 8(3000m)
So, 12.07. 1:30 3(1800m) 4(2400m) 7(3000m)
So, 12.07. 1:00 5(2100m) 7(3000m)
Ortszeit Luftdruck NN (hPa) Tendenz (hPa in 3 Std.)
So, 12.07. 2:00 1026 + 0,2
Sa, 11.07. 20:00 1024 + 0,2
Sa, 11.07. 14:00 1023 + 0,9
Sa, 11.07. 8:00 1022 + 1,3
Sa, 11.07. 2:00 1020 + 1,8
Fr, 10.07. 20:00 1015 + 1,7
Fr, 10.07. 14:00 1009 + 2,2
Fr, 10.07. 8:00 1007 - 2,1
Ortszeit Luftdruck NN (hPa) Tendenz (hPa in 3 Std.)
So, 12.07. 4:10 1026 keine Meldung
So, 12.07. 4:00 1027 0,0
So, 12.07. 3:50 1027 keine Meldung
So, 12.07. 3:40 1026 keine Meldung
So, 12.07. 3:30 1026 + 0,1
So, 12.07. 3:20 1026 keine Meldung
So, 12.07. 3:00 1027 + 0,2
So, 12.07. 2:30 1026 + 0,2
So, 12.07. 2:00 1026 + 0,2
So, 12.07. 1:30 1026 + 0,7
So, 12.07. 1:00 1026 + 0,9
Ortszeit Schneehöhe (cm)
So, 12.07. 2:00 -
Sa, 11.07. 20:00 -
Sa, 11.07. 14:00 -
Sa, 11.07. 8:00 -
Sa, 11.07. 2:00 -
Fr, 10.07. 20:00 -
Fr, 10.07. 14:00 -
Fr, 10.07. 8:00 -
Ortszeit Schneehöhe (cm)
So, 12.07. 4:10 -
So, 12.07. 4:00 -
So, 12.07. 3:50 -
So, 12.07. 3:40 -
So, 12.07. 3:30 -
So, 12.07. 3:20 -
So, 12.07. 3:00 -
So, 12.07. 2:30 -
So, 12.07. 2:00 -
So, 12.07. 1:30 -
So, 12.07. 1:00 -
Link zu dieser Seite / Seite empfehlen

Das Wetter in ...